createdAt,value
2023-04-30T00:00:51.581Z,21.75
2023-04-30T00:03:18.158Z,23.50
2023-04-30T00:05:44.802Z,21.92
2023-04-30T00:08:11.382Z,22.67
2023-04-30T00:10:38.020Z,25.67
2023-04-30T00:13:04.546Z,24.40
2023-04-30T00:15:31.196Z,26.13
2023-04-30T00:17:59.167Z,23.42
2023-04-30T00:20:26.519Z,22.73
2023-04-30T00:22:53.092Z,23.10
2023-04-30T00:25:19.799Z,24.73
2023-04-30T00:27:46.384Z,24.00
2023-04-30T00:30:13.037Z,25.42
2023-04-30T00:32:40.859Z,24.10
2023-04-30T00:35:09.667Z,29.73
2023-04-30T00:37:36.419Z,25.70
2023-04-30T00:40:04.892Z,25.45
2023-04-30T00:42:31.439Z,25.15
2023-04-30T00:44:58.065Z,26.50
2023-04-30T00:47:24.651Z,24.73
2023-04-30T00:49:51.316Z,25.83
2023-04-30T00:52:19.546Z,24.60
2023-04-30T00:54:46.403Z,26.88
2023-04-30T00:57:13.097Z,28.70
2023-04-30T00:59:41.437Z,26.58
2023-04-30T01:02:08.190Z,28.58
2023-04-30T01:04:35.527Z,30.90
2023-04-30T01:07:02.426Z,26.70
2023-04-30T01:09:31.478Z,29.02
2023-04-30T01:12:08.608Z,25.63
2023-04-30T01:14:45.525Z,24.90
2023-04-30T01:17:21.226Z,28.13
2023-04-30T01:19:48.075Z,25.25
2023-04-30T01:22:35.253Z,24.58
2023-04-30T01:25:30.060Z,27.95
2023-04-30T01:28:05.797Z,22.55
2023-04-30T01:30:34.676Z,23.35
2023-04-30T01:33:01.572Z,28.58
2023-04-30T01:35:41.543Z,22.65
2023-04-30T01:38:17.851Z,22.75
2023-04-30T01:40:53.410Z,22.88
2023-04-30T01:43:36.080Z,23.90
2023-04-30T01:46:13.931Z,23.38
2023-04-30T01:48:46.926Z,22.58
2023-04-30T01:51:20.436Z,24.00
2023-04-30T01:53:47.372Z,22.83
2023-04-30T01:56:21.895Z,28.30
2023-04-30T01:58:50.785Z,24.13
2023-04-30T02:01:27.464Z,26.80
2023-04-30T02:03:54.558Z,25.35
2023-04-30T02:06:21.427Z,25.23
2023-04-30T02:08:48.131Z,26.25
2023-04-30T02:11:14.829Z,27.98
2023-04-30T02:13:41.502Z,27.38
2023-04-30T02:16:09.516Z,25.70
2023-04-30T02:18:36.244Z,23.67
2023-04-30T02:21:02.807Z,22.13
2023-04-30T02:23:29.506Z,30.80
2023-04-30T02:25:56.157Z,31.30
2023-04-30T02:28:22.836Z,29.92
2023-04-30T02:30:49.916Z,24.92
2023-04-30T02:33:18.020Z,27.52
2023-04-30T02:35:44.629Z,26.85
2023-04-30T02:38:11.288Z,27.98
2023-04-30T02:40:37.862Z,30.83
2023-04-30T02:43:04.513Z,29.02
2023-04-30T02:45:31.866Z,28.25
2023-04-30T02:47:58.859Z,29.95
2023-04-30T02:50:26.822Z,29.80
2023-04-30T02:52:53.489Z,28.17
2023-04-30T02:55:20.042Z,32.25
2023-04-30T02:57:46.844Z,29.60
2023-04-30T03:00:13.865Z,28.25
2023-04-30T03:02:40.973Z,28.55
2023-04-30T03:05:08.238Z,29.40
2023-04-30T03:07:36.542Z,24.27
2023-04-30T03:10:03.401Z,24.80
2023-04-30T03:12:30.056Z,23.30
2023-04-30T03:14:56.665Z,25.35
2023-04-30T03:17:23.428Z,24.38
2023-04-30T03:19:50.027Z,27.42
2023-04-30T03:22:17.147Z,26.48
2023-04-30T03:24:45.741Z,28.80
2023-04-30T03:27:12.559Z,23.45
2023-04-30T03:29:39.433Z,24.95
2023-04-30T03:32:06.077Z,23.30
2023-04-30T03:34:32.656Z,27.85
2023-04-30T03:37:00.781Z,25.52
2023-04-30T03:39:27.661Z,29.05
2023-04-30T03:41:55.667Z,25.48
2023-04-30T03:44:22.633Z,28.88
2023-04-30T03:46:49.256Z,32.70
2023-04-30T03:49:15.838Z,27.40
2023-04-30T03:51:42.825Z,25.50
2023-04-30T03:54:09.375Z,25.35
2023-04-30T03:56:36.663Z,28.80
2023-04-30T03:59:05.560Z,23.63
2023-04-30T04:01:33.152Z,26.05
2023-04-30T04:04:00.080Z,21.65
2023-04-30T04:06:26.956Z,24.85
2023-04-30T04:08:53.917Z,23.63
2023-04-30T04:11:22.499Z,24.95
2023-04-30T04:13:49.094Z,26.77
2023-04-30T04:16:17.164Z,25.58
2023-04-30T04:18:44.229Z,23.17
2023-04-30T04:21:11.180Z,22.25
2023-04-30T04:23:37.744Z,24.95
2023-04-30T04:26:04.438Z,24.45
2023-04-30T04:28:31.232Z,28.35
2023-04-30T04:30:57.867Z,27.00
2023-04-30T04:33:26.121Z,29.02
2023-04-30T04:35:53.268Z,25.55
2023-04-30T04:38:19.918Z,25.02
2023-04-30T04:40:51.585Z,28.50
2023-04-30T04:43:18.699Z,27.95
2023-04-30T04:45:45.390Z,27.45
2023-04-30T04:48:12.052Z,27.08
2023-04-30T04:50:39.982Z,30.10
2023-04-30T04:53:06.608Z,29.73
2023-04-30T04:55:33.132Z,27.90
2023-04-30T04:58:00.025Z,29.55
2023-04-30T05:00:26.643Z,26.15
2023-04-30T05:02:53.745Z,26.15
2023-04-30T05:05:20.413Z,27.77
2023-04-30T05:07:48.437Z,27.15
2023-04-30T05:10:14.968Z,28.48
2023-04-30T05:12:41.869Z,26.80
2023-04-30T05:15:09.034Z,26.48
2023-04-30T05:17:35.667Z,26.15
2023-04-30T05:20:02.299Z,26.15
2023-04-30T05:22:28.887Z,28.40
2023-04-30T05:24:56.780Z,26.50
2023-04-30T05:27:23.406Z,25.95
2023-04-30T05:29:50.055Z,28.02
2023-04-30T05:32:16.920Z,29.48
2023-04-30T05:34:43.511Z,26.50
2023-04-30T05:37:10.390Z,29.05
2023-04-30T05:39:36.914Z,30.10
2023-04-30T05:42:05.015Z,30.02
2023-04-30T05:44:31.616Z,30.83
2023-04-30T05:46:58.401Z,25.80
2023-04-30T05:49:25.382Z,29.63
2023-04-30T05:51:51.998Z,26.00
2023-04-30T05:54:18.483Z,27.17
2023-04-30T05:56:45.130Z,26.20
2023-04-30T05:59:13.032Z,26.45
2023-04-30T06:01:39.702Z,24.38
2023-04-30T06:04:06.452Z,28.42
2023-04-30T06:06:33.192Z,28.00
2023-04-30T06:08:59.775Z,28.67
2023-04-30T06:11:26.400Z,27.30
2023-04-30T06:13:53.132Z,27.35
2023-04-30T06:16:21.120Z,25.13
2023-04-30T06:18:47.763Z,24.83
2023-04-30T06:21:14.325Z,27.42
2023-04-30T06:23:40.870Z,25.15
2023-04-30T06:26:07.594Z,24.23
2023-04-30T06:28:34.256Z,29.40
2023-04-30T06:31:00.942Z,24.40
2023-04-30T06:33:28.898Z,22.67
2023-04-30T06:35:55.542Z,23.20
2023-04-30T06:38:22.087Z,23.27
2023-04-30T06:40:48.941Z,21.10
2023-04-30T06:43:16.836Z,22.58
2023-04-30T06:45:43.430Z,21.98
2023-04-30T06:48:10.016Z,21.25
2023-04-30T06:50:37.968Z,21.65
2023-04-30T06:53:04.497Z,21.52
2023-04-30T06:55:31.391Z,21.70
2023-04-30T06:57:57.959Z,20.10
2023-04-30T07:00:24.578Z,21.08
2023-04-30T07:02:51.185Z,22.33
2023-04-30T07:05:18.407Z,20.95
2023-04-30T07:07:46.311Z,19.83
2023-04-30T07:10:12.961Z,19.70
2023-04-30T07:12:39.506Z,19.05
2023-04-30T07:15:07.395Z,20.00
2023-04-30T07:17:34.017Z,20.75
2023-04-30T07:20:00.590Z,19.02
2023-04-30T07:22:27.098Z,18.58
2023-04-30T07:24:55.343Z,19.27
2023-04-30T07:27:21.859Z,18.00
2023-04-30T07:29:48.929Z,18.98
2023-04-30T07:32:15.516Z,18.17
2023-04-30T07:34:42.262Z,20.58
2023-04-30T07:37:09.194Z,17.73
2023-04-30T07:39:35.891Z,18.27
2023-04-30T07:42:04.144Z,16.63
2023-04-30T07:44:31.457Z,16.60
2023-04-30T07:46:58.024Z,17.25
2023-04-30T07:49:26.256Z,17.25
2023-04-30T07:51:53.066Z,18.38
2023-04-30T07:54:19.711Z,13.32
2023-04-30T07:56:46.232Z,16.85
2023-04-30T07:59:14.160Z,18.58
2023-04-30T08:01:41.124Z,14.00
2023-04-30T08:04:07.966Z,14.07
2023-04-30T08:06:34.564Z,13.60
2023-04-30T08:09:01.226Z,15.82
2023-04-30T08:11:27.762Z,15.20
2023-04-30T08:13:54.430Z,13.98
2023-04-30T08:16:22.429Z,12.68
2023-04-30T08:18:49.909Z,13.45
2023-04-30T08:21:16.759Z,14.00
2023-04-30T08:23:43.513Z,10.80
2023-04-30T08:26:10.071Z,13.23
2023-04-30T08:28:36.736Z,15.63
2023-04-30T08:31:03.585Z,12.10
2023-04-30T08:33:31.553Z,11.73
2023-04-30T08:35:58.083Z,9.80
2023-04-30T08:38:26.951Z,10.85
2023-04-30T08:41:04.754Z,9.65
2023-04-30T08:43:31.539Z,8.65
2023-04-30T08:45:58.177Z,9.15
2023-04-30T08:48:25.005Z,8.75
2023-04-30T08:50:53.087Z,9.07
2023-04-30T08:53:21.026Z,10.25
2023-04-30T08:55:48.222Z,8.07
2023-04-30T08:58:15.133Z,7.70
2023-04-30T09:00:41.836Z,10.30
2023-04-30T09:03:08.752Z,7.80
2023-04-30T09:05:37.325Z,10.88
2023-04-30T09:08:07.020Z,7.13
2023-04-30T09:10:33.711Z,4.57
2023-04-30T09:13:01.302Z,6.50
2023-04-30T09:15:28.436Z,5.70
2023-04-30T09:18:09.988Z,4.85
2023-04-30T09:23:08.970Z,4.88
2023-04-30T09:25:39.557Z,3.78
2023-04-30T09:28:10.278Z,3.97
2023-04-30T09:30:37.483Z,3.17
2023-04-30T09:33:04.547Z,4.80
2023-04-30T09:35:32.916Z,4.68
2023-04-30T09:38:00.472Z,2.08
2023-04-30T09:40:35.599Z,3.50
2023-04-30T09:43:03.164Z,3.60
2023-04-30T09:45:39.758Z,3.47
2023-04-30T09:48:16.282Z,2.22
2023-04-30T09:50:44.771Z,1.45
2023-04-30T09:53:13.354Z,1.50
2023-04-30T09:55:43.542Z,1.92
2023-04-30T09:58:11.608Z,1.17
2023-04-30T10:00:38.877Z,1.05
2023-04-30T10:03:07.079Z,1.25
2023-04-30T10:05:37.251Z,1.20
2023-04-30T10:08:07.026Z,1.17
2023-04-30T10:10:34.101Z,1.35
2023-04-30T10:13:07.157Z,0.80
2023-04-30T10:15:39.198Z,1.33
2023-04-30T10:20:36.208Z,1.13
2023-04-30T10:23:02.968Z,0.73
2023-04-30T10:25:30.385Z,1.40
2023-04-30T10:27:57.394Z,1.13
2023-04-30T10:30:26.144Z,1.25
2023-04-30T10:33:05.394Z,0.95
2023-04-30T10:35:40.134Z,1.45
2023-04-30T10:38:12.778Z,1.60
2023-04-30T10:40:39.608Z,1.10
2023-04-30T10:43:06.179Z,2.80
2023-04-30T10:45:37.909Z,1.00
2023-04-30T10:48:05.675Z,1.88
2023-04-30T10:50:32.445Z,3.13
2023-04-30T10:53:02.517Z,3.10
2023-04-30T10:55:30.684Z,1.17
2023-04-30T10:57:58.765Z,1.05
2023-04-30T11:00:27.271Z,1.50
2023-04-30T11:02:58.594Z,4.57
2023-04-30T11:05:36.245Z,1.02
2023-04-30T11:08:02.946Z,1.50
2023-04-30T11:10:33.749Z,1.13
2023-04-30T11:13:04.634Z,1.60
2023-04-30T11:15:34.778Z,1.13
2023-04-30T11:18:02.947Z,0.82
2023-04-30T11:20:29.529Z,2.78
2023-04-30T11:23:09.539Z,1.48
2023-04-30T11:25:40.879Z,5.10
2023-04-30T11:28:08.076Z,1.92
2023-04-30T11:30:35.680Z,1.48
2023-04-30T11:33:03.916Z,0.82
2023-04-30T11:35:32.019Z,1.27
2023-04-30T11:38:00.109Z,1.00
2023-04-30T11:40:27.554Z,2.22
2023-04-30T11:42:55.522Z,1.10
2023-04-30T11:45:22.063Z,1.75
2023-04-30T11:47:50.118Z,2.35
2023-04-30T11:50:19.531Z,1.30
2023-04-30T11:52:50.216Z,3.40
2023-04-30T11:55:18.409Z,1.13
2023-04-30T11:57:46.959Z,1.00
2023-04-30T12:00:15.287Z,1.13
2023-04-30T12:02:42.739Z,1.33
2023-04-30T12:05:13.721Z,1.60
2023-04-30T12:07:45.030Z,2.60
2023-04-30T12:12:38.134Z,0.73
2023-04-30T12:15:11.877Z,2.10
2023-04-30T12:17:38.605Z,2.47
2023-04-30T12:20:06.158Z,0.90
2023-04-30T12:22:33.002Z,1.60
2023-04-30T12:25:07.639Z,1.27
2023-04-30T12:27:34.420Z,1.23
2023-04-30T12:30:03.565Z,1.15
2023-04-30T12:32:30.413Z,0.95
2023-04-30T12:34:58.206Z,1.50
2023-04-30T12:37:26.959Z,2.15
2023-04-30T12:39:55.804Z,1.02
2023-04-30T12:42:24.873Z,1.42
2023-04-30T12:44:51.353Z,1.67
2023-04-30T12:47:18.519Z,2.33
2023-04-30T12:49:45.433Z,1.35
2023-04-30T12:52:13.745Z,0.98
2023-04-30T12:54:40.438Z,1.02
2023-04-30T12:57:08.572Z,1.20
2023-04-30T12:59:37.773Z,1.75
2023-04-30T13:02:08.385Z,1.00
2023-04-30T13:04:35.314Z,1.38
2023-04-30T13:07:01.907Z,1.75
2023-04-30T13:09:28.551Z,0.82
2023-04-30T13:11:55.087Z,1.38
2023-04-30T13:14:21.673Z,0.57
2023-04-30T13:16:50.005Z,0.70
2023-04-30T13:19:16.595Z,1.15
2023-04-30T13:21:43.380Z,1.10
2023-04-30T13:24:09.959Z,1.13
2023-04-30T13:26:36.769Z,1.50
2023-04-30T13:29:03.859Z,1.38
2023-04-30T13:31:30.614Z,1.15
2023-04-30T13:33:58.616Z,2.25
2023-04-30T13:36:25.192Z,0.43
2023-04-30T13:38:51.794Z,1.25
2023-04-30T13:41:18.335Z,0.77
2023-04-30T13:43:45.204Z,0.82
2023-04-30T13:46:12.511Z,0.73
2023-04-30T13:48:39.137Z,1.55
2023-04-30T13:51:07.042Z,1.15
2023-04-30T13:53:33.656Z,1.52
2023-04-30T13:56:00.177Z,1.10
2023-04-30T13:58:27.267Z,0.75
2023-04-30T14:00:53.906Z,1.30
2023-04-30T14:03:20.935Z,1.48
2023-04-30T14:05:47.605Z,0.68
2023-04-30T14:08:15.543Z,1.33
2023-04-30T14:10:42.105Z,0.73
2023-04-30T14:13:08.722Z,0.30
2023-04-30T14:15:35.447Z,2.17
2023-04-30T14:18:02.084Z,1.40
2023-04-30T14:20:28.674Z,0.77
2023-04-30T14:22:55.261Z,0.82
2023-04-30T14:25:23.120Z,1.98
2023-04-30T14:27:49.981Z,1.70
2023-04-30T14:30:16.617Z,0.60
2023-04-30T14:32:43.272Z,1.05
2023-04-30T14:35:09.999Z,3.55
2023-04-30T14:37:36.974Z,0.63
2023-04-30T14:40:04.465Z,1.13
2023-04-30T14:42:32.401Z,0.50
2023-04-30T14:44:58.908Z,1.10
2023-04-30T14:47:25.713Z,1.15
2023-04-30T14:49:52.344Z,0.75
2023-04-30T14:52:19.182Z,0.63
2023-04-30T14:54:45.756Z,2.08
2023-04-30T14:57:12.378Z,0.95
2023-04-30T14:59:40.279Z,0.80
2023-04-30T15:02:07.252Z,0.70
2023-04-30T15:04:34.105Z,0.55
2023-04-30T15:07:00.706Z,1.20
2023-04-30T15:09:27.260Z,0.55
2023-04-30T15:11:53.880Z,0.52
2023-04-30T15:14:20.403Z,2.60
2023-04-30T15:16:48.339Z,1.08
2023-04-30T15:19:14.931Z,1.25
2023-04-30T15:21:41.610Z,0.30
2023-04-30T15:24:08.234Z,0.73
2023-04-30T15:26:35.154Z,1.23
2023-04-30T15:29:01.675Z,0.85
2023-04-30T15:31:28.319Z,1.90
2023-04-30T15:33:56.401Z,0.95
2023-04-30T15:36:23.105Z,0.60
2023-04-30T15:38:49.614Z,1.13
2023-04-30T15:41:16.204Z,0.45
2023-04-30T15:43:42.754Z,0.85
2023-04-30T15:46:09.434Z,0.90
2023-04-30T15:48:35.940Z,1.08
2023-04-30T15:51:03.935Z,1.23
2023-04-30T15:53:30.458Z,1.85
2023-04-30T15:55:56.992Z,1.20
2023-04-30T15:58:23.545Z,1.10
2023-04-30T16:00:50.142Z,0.73
2023-04-30T16:03:16.818Z,1.60
2023-04-30T16:05:43.538Z,1.52
2023-04-30T16:08:11.622Z,1.88
2023-04-30T16:10:38.769Z,1.20
2023-04-30T16:13:05.422Z,1.27
2023-04-30T16:15:32.066Z,1.17
2023-04-30T16:17:58.588Z,2.05
2023-04-30T16:20:25.333Z,1.13
2023-04-30T16:22:51.861Z,1.63
2023-04-30T16:25:19.958Z,0.50
2023-04-30T16:27:46.918Z,2.72
2023-04-30T16:30:13.635Z,1.55
2023-04-30T16:32:40.262Z,1.17
2023-04-30T16:35:07.690Z,1.20
2023-04-30T16:37:34.174Z,2.10
2023-04-30T16:40:00.770Z,1.65
2023-04-30T16:42:28.663Z,1.25
2023-04-30T16:44:55.192Z,1.55
2023-04-30T16:47:21.677Z,1.40
2023-04-30T16:49:48.328Z,3.30
2023-04-30T16:52:14.858Z,0.85
2023-04-30T16:54:41.460Z,1.35
2023-04-30T16:57:08.005Z,1.50
2023-04-30T16:59:35.959Z,1.25
2023-04-30T17:02:02.502Z,1.52
2023-04-30T17:04:29.083Z,1.00
2023-04-30T17:06:55.564Z,1.83
2023-04-30T17:09:22.145Z,1.30
2023-04-30T17:11:48.680Z,1.98
2023-04-30T17:14:15.322Z,3.45
2023-04-30T17:16:43.198Z,1.73
2023-04-30T17:19:09.812Z,3.20
2023-04-30T17:21:36.332Z,1.50
2023-04-30T17:24:02.879Z,1.77
2023-04-30T17:26:29.378Z,1.70
2023-04-30T17:28:56.024Z,2.08
2023-04-30T17:31:22.665Z,1.33
2023-04-30T17:33:50.588Z,5.25
2023-04-30T17:36:17.058Z,4.13
2023-04-30T17:38:43.669Z,2.83
2023-04-30T17:41:10.208Z,2.63
2023-04-30T17:43:36.781Z,1.25
2023-04-30T17:46:03.419Z,2.58
2023-04-30T17:48:30.015Z,2.95
2023-04-30T17:50:58.041Z,2.97
2023-04-30T17:53:24.688Z,3.08
2023-04-30T17:55:51.222Z,2.88
2023-04-30T17:58:17.820Z,3.50
2023-04-30T18:00:44.352Z,2.88
2023-04-30T18:03:11.088Z,2.10
2023-04-30T18:05:37.770Z,4.03
2023-04-30T18:08:05.956Z,2.90
2023-04-30T18:10:32.542Z,2.70
2023-04-30T18:12:59.105Z,2.20
2023-04-30T18:15:25.698Z,1.92
2023-04-30T18:17:52.373Z,5.93
2023-04-30T18:20:18.932Z,2.60
2023-04-30T18:22:45.511Z,3.60
2023-04-30T18:25:13.566Z,6.38
2023-04-30T18:27:40.417Z,5.53
2023-04-30T18:30:07.846Z,3.50
2023-04-30T18:32:34.434Z,4.57
2023-04-30T18:35:00.911Z,3.92
2023-04-30T18:37:27.447Z,4.60
2023-04-30T18:39:54.222Z,4.28
2023-04-30T18:42:23.363Z,5.57
2023-04-30T18:44:49.870Z,3.50
2023-04-30T18:47:16.419Z,4.20
2023-04-30T18:49:43.287Z,3.72
2023-04-30T18:52:09.872Z,3.30
2023-04-30T18:54:36.418Z,3.72
2023-04-30T18:57:03.240Z,5.32
2023-04-30T18:59:31.232Z,3.00
2023-04-30T19:01:57.996Z,5.95
2023-04-30T19:04:24.560Z,4.25
2023-04-30T19:06:51.214Z,3.70
2023-04-30T19:09:17.812Z,3.20
2023-04-30T19:11:44.377Z,3.00
2023-04-30T19:14:10.819Z,6.07
2023-04-30T19:16:38.808Z,9.23
2023-04-30T19:19:05.339Z,5.38
2023-04-30T19:21:31.911Z,5.57
2023-04-30T19:23:58.396Z,5.28
2023-04-30T19:26:24.959Z,5.07
2023-04-30T19:28:51.546Z,4.90
2023-04-30T19:31:18.276Z,4.43
2023-04-30T19:33:46.118Z,7.15
2023-04-30T19:36:12.680Z,5.43
2023-04-30T19:38:39.186Z,5.40
2023-04-30T19:41:05.764Z,8.40
2023-04-30T19:43:32.245Z,6.38
2023-04-30T19:45:59.288Z,8.38
2023-04-30T19:48:26.000Z,8.88
2023-04-30T19:50:54.399Z,9.48
2023-04-30T19:53:21.686Z,8.57
2023-04-30T19:55:48.523Z,7.88
2023-04-30T19:58:15.034Z,7.55
2023-04-30T20:00:43.740Z,9.07
2023-04-30T20:03:10.806Z,5.72
2023-04-30T20:05:38.026Z,5.85
2023-04-30T20:08:07.571Z,6.15
2023-04-30T20:10:35.942Z,8.43
2023-04-30T20:13:03.507Z,6.10
2023-04-30T20:15:30.256Z,7.65
2023-04-30T20:17:56.942Z,4.38
2023-04-30T20:20:23.615Z,6.03
2023-04-30T20:22:51.967Z,4.85
2023-04-30T20:25:21.387Z,5.15
2023-04-30T20:27:47.990Z,6.07
2023-04-30T20:30:14.682Z,6.80
2023-04-30T20:32:41.356Z,6.32
2023-04-30T20:35:08.824Z,5.80
2023-04-30T20:37:37.735Z,6.15
2023-04-30T20:40:05.392Z,4.97
2023-04-30T20:42:33.585Z,6.25
2023-04-30T20:45:01.047Z,5.13
2023-04-30T20:47:28.512Z,6.22
2023-04-30T20:49:55.254Z,6.70
2023-04-30T20:52:21.852Z,4.93
2023-04-30T20:54:48.494Z,4.70
2023-04-30T20:57:15.007Z,5.97
2023-04-30T20:59:42.969Z,5.15
2023-04-30T21:02:09.479Z,5.90
2023-04-30T21:04:36.458Z,4.03
2023-04-30T21:07:03.015Z,4.18
2023-04-30T21:09:29.609Z,5.18
2023-04-30T21:11:56.137Z,4.47
2023-04-30T21:14:22.840Z,5.47
2023-04-30T21:16:50.732Z,7.97
2023-04-30T21:19:17.358Z,5.03
2023-04-30T21:21:43.870Z,4.10
2023-04-30T21:24:10.484Z,4.75
2023-04-30T21:26:36.997Z,4.60
2023-04-30T21:29:03.847Z,6.22
2023-04-30T21:31:30.417Z,6.10
2023-04-30T21:33:58.736Z,5.40
2023-04-30T21:36:25.264Z,5.88
2023-04-30T21:38:51.850Z,5.13
2023-04-30T21:41:18.510Z,5.70
2023-04-30T21:43:45.129Z,5.47
2023-04-30T21:46:11.929Z,5.18
2023-04-30T21:48:38.568Z,6.18
2023-04-30T21:51:12.350Z,6.32
2023-04-30T21:53:38.980Z,10.63
2023-04-30T21:56:06.382Z,4.18
2023-04-30T21:58:33.022Z,5.55
2023-04-30T22:00:59.566Z,5.10
2023-04-30T22:03:26.320Z,7.22
2023-04-30T22:05:53.044Z,7.18
2023-04-30T22:08:21.135Z,6.80
2023-04-30T22:10:47.829Z,7.03
2023-04-30T22:13:14.650Z,5.43
2023-04-30T22:18:13.501Z,10.77
2023-04-30T22:20:40.188Z,6.78
2023-04-30T22:23:06.822Z,7.38
2023-04-30T22:25:34.830Z,5.82
2023-04-30T22:28:01.431Z,6.30
2023-04-30T22:30:28.051Z,6.28
2023-04-30T22:32:55.723Z,5.97
2023-04-30T22:35:22.833Z,8.40
2023-04-30T22:37:49.933Z,6.63
2023-04-30T22:40:16.604Z,4.45
2023-04-30T22:42:44.845Z,6.95
2023-04-30T22:45:12.168Z,6.88
2023-04-30T22:47:40.357Z,8.48
2023-04-30T22:50:08.126Z,5.97
2023-04-30T22:52:34.889Z,6.75
2023-04-30T22:55:02.341Z,4.80
2023-04-30T22:57:29.021Z,5.75
2023-04-30T22:59:57.166Z,5.43
2023-04-30T23:02:24.121Z,9.10
2023-04-30T23:04:50.640Z,6.90
2023-04-30T23:07:17.211Z,6.30
2023-04-30T23:09:43.749Z,7.07
2023-04-30T23:12:10.363Z,5.97
2023-04-30T23:14:36.924Z,5.88
2023-04-30T23:17:04.985Z,6.20
2023-04-30T23:19:31.666Z,6.25
2023-04-30T23:21:58.310Z,6.93
2023-04-30T23:24:24.825Z,8.68
2023-04-30T23:26:51.520Z,7.93
2023-04-30T23:29:18.648Z,8.50
2023-04-30T23:31:45.264Z,7.90
2023-04-30T23:34:13.184Z,8.55
2023-04-30T23:36:39.777Z,6.57
2023-04-30T23:39:06.359Z,6.15
2023-04-30T23:41:33.143Z,7.70
2023-04-30T23:43:59.679Z,6.57
2023-04-30T23:46:26.290Z,8.30
2023-04-30T23:48:53.029Z,6.82
2023-04-30T23:51:20.981Z,7.22
2023-04-30T23:53:47.766Z,5.55
2023-04-30T23:56:14.414Z,5.50
2023-04-30T23:58:40.973Z,6.60
